createdAt,value
2017-12-11T00:00:31.399Z,0.00
2017-12-11T00:01:32.035Z,0.00
2017-12-11T00:02:32.384Z,0.00
2017-12-11T00:03:31.969Z,0.00
2017-12-11T00:04:32.387Z,0.00
2017-12-11T00:05:32.099Z,0.00
2017-12-11T00:06:32.375Z,0.00
2017-12-11T00:07:31.521Z,0.00
2017-12-11T00:08:55.183Z,0.00
2017-12-11T00:09:55.324Z,0.00
2017-12-11T00:10:55.351Z,0.00
2017-12-11T00:11:55.518Z,0.00
2017-12-11T00:12:55.823Z,0.00
2017-12-11T00:13:56.090Z,0.00
2017-12-11T00:14:55.319Z,0.00
2017-12-11T00:15:55.214Z,0.00
2017-12-11T00:16:55.273Z,0.00
2017-12-11T00:17:55.177Z,0.00
2017-12-11T00:18:55.280Z,0.00
2017-12-11T00:19:55.895Z,0.00
2017-12-11T00:20:56.213Z,0.00
2017-12-11T00:21:55.363Z,0.00
2017-12-11T00:22:56.586Z,0.00
2017-12-11T00:23:55.583Z,0.00
2017-12-11T00:24:56.011Z,0.00
2017-12-11T00:25:55.912Z,0.00
2017-12-11T00:27:19.753Z,0.00
2017-12-11T00:28:20.734Z,0.00
2017-12-11T00:29:20.783Z,0.00
2017-12-11T00:30:20.003Z,0.00
2017-12-11T00:31:20.137Z,0.00
2017-12-11T00:32:20.171Z,0.00
2017-12-11T00:33:20.193Z,0.00
2017-12-11T00:34:20.105Z,0.00
2017-12-11T00:35:46.048Z,0.00
2017-12-11T00:36:46.069Z,0.00
2017-12-11T00:37:46.123Z,0.00
2017-12-11T00:38:46.002Z,0.00
2017-12-11T00:39:46.048Z,0.00
2017-12-11T00:40:46.295Z,0.00
2017-12-11T00:41:46.120Z,0.00
2017-12-11T00:42:46.026Z,0.00
2017-12-11T00:43:46.896Z,0.00
2017-12-11T00:44:46.925Z,0.00
2017-12-11T00:46:09.954Z,0.00
2017-12-11T00:47:10.022Z,0.00
2017-12-11T00:48:09.897Z,0.00
2017-12-11T00:49:10.094Z,0.00
2017-12-11T00:50:10.228Z,0.00
2017-12-11T00:51:10.172Z,0.00
2017-12-11T00:52:10.070Z,0.00
2017-12-11T00:53:10.074Z,0.00
2017-12-11T00:54:10.203Z,0.00
2017-12-11T00:55:10.095Z,0.00
2017-12-11T00:56:10.240Z,0.00
2017-12-11T00:57:10.180Z,0.00
2017-12-11T00:58:10.127Z,0.00
2017-12-11T00:59:10.287Z,0.00
2017-12-11T01:00:10.226Z,0.00
2017-12-11T01:01:10.321Z,0.00
2017-12-11T01:02:10.426Z,0.00
2017-12-11T01:03:10.472Z,0.00
2017-12-11T01:04:10.723Z,0.00
2017-12-11T01:05:10.925Z,0.00
2017-12-11T01:06:10.765Z,0.00
2017-12-11T01:07:10.664Z,0.00
2017-12-11T01:08:10.761Z,0.00
2017-12-11T01:09:10.035Z,0.00
2017-12-11T01:10:34.099Z,0.00
2017-12-11T01:11:34.158Z,0.00
2017-12-11T01:12:34.210Z,0.00
2017-12-11T01:13:34.278Z,0.00
2017-12-11T01:14:57.991Z,0.00
2017-12-11T01:15:58.088Z,0.00
2017-12-11T01:16:58.246Z,0.00
2017-12-11T01:17:58.278Z,0.00
2017-12-11T01:18:58.506Z,0.00
2017-12-11T01:20:22.959Z,0.00
2017-12-11T01:21:23.007Z,0.00
2017-12-11T01:22:22.906Z,0.00
2017-12-11T01:23:23.162Z,0.00
2017-12-11T01:24:23.256Z,0.00
2017-12-11T01:25:23.337Z,0.00
2017-12-11T01:26:22.534Z,0.00
2017-12-11T01:27:22.669Z,0.00
2017-12-11T01:28:22.564Z,0.00
2017-12-11T01:29:22.690Z,0.00
2017-12-11T01:30:22.576Z,0.00
2017-12-11T01:31:22.608Z,0.00
2017-12-11T01:32:22.548Z,0.00
2017-12-11T01:33:22.418Z,0.00
2017-12-11T01:34:22.649Z,0.00
2017-12-11T01:35:22.874Z,0.00
2017-12-11T01:36:23.035Z,0.00
2017-12-11T01:37:23.266Z,0.00
2017-12-11T01:38:23.369Z,0.00
2017-12-11T01:39:23.427Z,0.00
2017-12-11T01:40:22.538Z,0.00
2017-12-11T01:41:22.520Z,0.00
2017-12-11T01:42:22.614Z,0.00
2017-12-11T01:43:22.595Z,0.00
2017-12-11T01:44:22.512Z,0.00
2017-12-11T01:45:22.417Z,0.00
2017-12-11T01:46:23.397Z,0.00
2017-12-11T01:47:23.414Z,0.00
2017-12-11T01:48:22.506Z,0.00
2017-12-11T01:49:22.487Z,0.00
2017-12-11T01:50:22.648Z,0.00
2017-12-11T01:51:22.787Z,0.00
2017-12-11T01:52:22.711Z,0.00
2017-12-11T01:53:22.753Z,0.00
2017-12-11T01:54:22.821Z,0.00
2017-12-11T01:55:22.969Z,0.00
2017-12-11T01:56:23.162Z,0.00
2017-12-11T01:57:23.262Z,0.00
2017-12-11T01:58:23.221Z,0.00
2017-12-11T01:59:23.250Z,0.00
2017-12-11T02:00:23.360Z,0.00
2017-12-11T02:01:23.271Z,0.00
2017-12-11T02:02:23.108Z,0.00
2017-12-11T02:03:23.169Z,0.00
2017-12-11T02:04:23.097Z,0.00
2017-12-11T02:05:46.948Z,0.00
2017-12-11T02:06:47.863Z,0.00
2017-12-11T02:07:47.724Z,0.00
2017-12-11T02:08:47.689Z,0.00
2017-12-11T02:09:47.705Z,0.00
2017-12-11T02:10:47.784Z,0.00
2017-12-11T02:11:47.704Z,0.00
2017-12-11T02:12:47.663Z,0.00
2017-12-11T02:13:47.641Z,0.00
2017-12-11T02:14:47.588Z,0.00
2017-12-11T02:15:47.643Z,0.00
2017-12-11T02:16:47.746Z,0.00
2017-12-11T02:17:47.667Z,0.00
2017-12-11T02:18:47.689Z,0.00
2017-12-11T02:19:47.848Z,0.00
2017-12-11T02:20:47.918Z,0.00
2017-12-11T02:21:46.973Z,0.00
2017-12-11T02:22:46.890Z,0.00
2017-12-11T02:23:46.961Z,0.00
2017-12-11T02:24:47.128Z,0.00
2017-12-11T02:25:46.879Z,0.00
2017-12-11T02:26:47.895Z,0.00
2017-12-11T02:27:48.142Z,0.00
2017-12-11T02:28:47.250Z,0.00
2017-12-11T02:29:47.132Z,0.00
2017-12-11T02:30:47.095Z,0.00
2017-12-11T02:31:47.072Z,0.00
2017-12-11T02:32:47.108Z,0.00
2017-12-11T02:33:47.231Z,0.00
2017-12-11T02:34:47.417Z,0.00
2017-12-11T02:35:47.258Z,0.00
2017-12-11T02:36:47.221Z,0.00
2017-12-11T02:37:47.278Z,0.00
2017-12-11T02:38:47.299Z,0.00
2017-12-11T02:39:47.306Z,0.00
2017-12-11T02:40:47.226Z,0.00
2017-12-11T02:41:47.176Z,0.00
2017-12-11T02:42:47.792Z,0.00
2017-12-11T02:43:47.865Z,0.00
2017-12-11T02:44:47.886Z,0.00
2017-12-11T02:46:11.464Z,0.00
2017-12-11T02:47:12.460Z,0.00
2017-12-11T02:48:11.527Z,0.00
2017-12-11T02:49:12.456Z,0.00
2017-12-11T02:50:11.652Z,0.00
2017-12-11T02:51:11.564Z,0.00
2017-12-11T02:52:11.526Z,0.00
2017-12-11T02:53:11.604Z,0.00
2017-12-11T02:54:11.688Z,0.00
2017-12-11T02:55:11.835Z,0.00
2017-12-11T02:56:11.909Z,0.00
2017-12-11T02:57:11.797Z,0.00
2017-12-11T02:58:11.880Z,0.00
2017-12-11T02:59:11.874Z,0.00
2017-12-11T03:00:35.520Z,0.00
2017-12-11T03:01:36.451Z,0.00
2017-12-11T03:02:35.560Z,0.00
2017-12-11T03:03:35.670Z,0.00
2017-12-11T03:04:35.667Z,0.00
2017-12-11T03:05:35.680Z,0.00
2017-12-11T03:06:35.572Z,0.00
2017-12-11T03:07:35.579Z,0.00
2017-12-11T03:08:35.602Z,0.00
2017-12-11T03:09:35.482Z,0.00
2017-12-11T03:10:36.372Z,0.00
2017-12-11T03:11:36.194Z,0.00
2017-12-11T03:12:35.983Z,0.00
2017-12-11T03:13:35.900Z,0.00
2017-12-11T03:14:35.895Z,0.00
2017-12-11T03:15:35.940Z,0.00
2017-12-11T03:16:35.830Z,0.00
2017-12-11T03:17:35.811Z,0.00
2017-12-11T03:18:35.754Z,0.00
2017-12-11T03:19:35.716Z,0.00
2017-12-11T03:20:35.551Z,0.00
2017-12-11T03:21:35.597Z,0.00
2017-12-11T03:22:35.485Z,0.00
2017-12-11T03:23:35.585Z,0.00
2017-12-11T03:24:36.440Z,0.00
2017-12-11T03:25:36.314Z,0.00
2017-12-11T03:26:36.363Z,0.00
2017-12-11T03:27:36.240Z,0.00
2017-12-11T03:28:36.146Z,0.00
2017-12-11T03:29:36.139Z,0.00
2017-12-11T03:30:36.130Z,0.00
2017-12-11T03:31:36.087Z,0.00
2017-12-11T03:32:36.119Z,0.00
2017-12-11T03:33:36.101Z,0.00
2017-12-11T03:34:36.029Z,0.00
2017-12-11T03:35:36.132Z,0.00
2017-12-11T03:36:35.903Z,0.00
2017-12-11T03:37:36.038Z,0.00
2017-12-11T03:38:36.060Z,0.00
2017-12-11T03:39:36.064Z,0.00
2017-12-11T03:40:35.850Z,0.00
2017-12-11T03:41:35.832Z,0.00
2017-12-11T03:42:35.841Z,0.00
2017-12-11T03:43:35.818Z,0.00
2017-12-11T03:44:35.723Z,0.00
2017-12-11T03:45:35.486Z,0.00
2017-12-11T03:46:36.454Z,0.00
2017-12-11T03:47:36.205Z,0.00
2017-12-11T03:48:36.106Z,0.00
2017-12-11T03:49:36.183Z,0.00
2017-12-11T03:50:36.047Z,0.00
2017-12-11T03:51:36.420Z,0.00
2017-12-11T03:53:29.220Z,0.00
2017-12-11T03:54:09.922Z,0.00
2017-12-11T03:55:09.874Z,0.00
2017-12-11T03:56:09.817Z,0.00
2017-12-11T03:57:33.477Z,0.00
2017-12-11T03:58:34.379Z,0.00
2017-12-11T03:59:34.223Z,0.00
2017-12-11T04:00:34.179Z,0.00
2017-12-11T04:01:34.055Z,0.00
2017-12-11T04:02:34.027Z,0.00
2017-12-11T04:03:33.929Z,0.00
2017-12-11T04:04:33.910Z,0.00
2017-12-11T04:05:33.838Z,0.00
2017-12-11T04:06:33.704Z,0.00
2017-12-11T04:07:33.710Z,0.00
2017-12-11T04:08:33.516Z,0.00
2017-12-11T04:09:33.559Z,0.00
2017-12-11T04:10:34.423Z,0.00
2017-12-11T04:11:34.507Z,0.00
2017-12-11T04:12:34.416Z,0.00
2017-12-11T04:13:34.295Z,0.00
2017-12-11T04:14:34.385Z,0.00
2017-12-11T04:15:34.335Z,0.00
2017-12-11T04:16:34.217Z,0.00
2017-12-11T04:17:34.275Z,0.00
2017-12-11T04:18:34.112Z,0.00
2017-12-11T04:19:33.975Z,0.00
2017-12-11T04:20:33.926Z,0.00
2017-12-11T04:21:33.840Z,0.00
2017-12-11T04:22:33.757Z,0.00
2017-12-11T04:23:33.566Z,0.00
2017-12-11T04:24:33.444Z,0.00
2017-12-11T04:25:34.374Z,0.00
2017-12-11T04:26:34.442Z,0.00
2017-12-11T04:27:34.459Z,0.00
2017-12-11T04:28:34.392Z,0.00
2017-12-11T04:29:34.250Z,0.00
2017-12-11T04:30:34.300Z,0.00
2017-12-11T04:31:34.244Z,0.00
2017-12-11T04:32:34.318Z,0.00
2017-12-11T04:33:34.258Z,0.00
2017-12-11T04:34:34.252Z,0.00
2017-12-11T04:35:34.163Z,0.00
2017-12-11T04:36:33.982Z,0.00
2017-12-11T04:37:33.900Z,0.00
2017-12-11T04:38:33.638Z,0.00
2017-12-11T04:39:33.510Z,0.00
2017-12-11T04:40:33.473Z,0.00
2017-12-11T04:41:34.333Z,0.00
2017-12-11T04:42:34.199Z,0.00
2017-12-11T04:43:34.012Z,0.00
2017-12-11T04:44:33.982Z,0.00
2017-12-11T04:45:33.873Z,0.00
2017-12-11T04:46:33.782Z,0.00
2017-12-11T04:47:33.628Z,0.00
2017-12-11T04:48:34.464Z,0.00
2017-12-11T04:49:34.295Z,0.00
2017-12-11T04:50:34.162Z,0.00
2017-12-11T04:51:34.051Z,0.00
2017-12-11T04:52:33.892Z,0.00
2017-12-11T04:53:33.780Z,0.00
2017-12-11T04:54:33.769Z,0.00
2017-12-11T04:55:33.683Z,0.00
2017-12-11T04:56:33.625Z,0.00
2017-12-11T04:57:33.770Z,0.00
2017-12-11T04:58:33.752Z,0.00
2017-12-11T04:59:33.602Z,0.00
2017-12-11T05:00:34.367Z,0.00
2017-12-11T05:01:34.478Z,0.00
2017-12-11T05:02:34.443Z,0.00
2017-12-11T05:03:34.253Z,0.00
2017-12-11T05:04:34.272Z,0.00
2017-12-11T05:05:34.234Z,0.00
2017-12-11T05:06:34.091Z,0.00
2017-12-11T05:07:34.059Z,0.00
2017-12-11T05:08:34.016Z,0.00
2017-12-11T05:09:33.965Z,0.00
2017-12-11T05:10:34.043Z,0.00
2017-12-11T05:11:33.880Z,0.00
2017-12-11T05:12:33.862Z,0.00
2017-12-11T05:13:33.770Z,0.00
2017-12-11T05:14:33.658Z,0.00
2017-12-11T05:15:33.637Z,0.00
2017-12-11T05:16:33.593Z,0.00
2017-12-11T05:17:34.396Z,0.00
2017-12-11T05:18:34.301Z,0.00
2017-12-11T05:19:34.280Z,0.00
2017-12-11T05:20:34.223Z,0.00
2017-12-11T05:21:34.114Z,0.00
2017-12-11T05:22:33.969Z,0.00
2017-12-11T05:23:34.008Z,0.00
2017-12-11T05:24:33.912Z,0.00
2017-12-11T05:25:33.833Z,0.00
2017-12-11T05:26:33.786Z,0.00
2017-12-11T05:27:33.828Z,0.00
2017-12-11T05:28:33.764Z,0.00
2017-12-11T05:29:33.695Z,0.00
2017-12-11T05:30:33.849Z,0.00
2017-12-11T05:31:34.004Z,0.00
2017-12-11T05:32:34.350Z,0.00
2017-12-11T05:33:35.333Z,0.00
2017-12-11T05:34:34.608Z,0.00
2017-12-11T05:35:33.719Z,0.00
2017-12-11T05:36:33.838Z,0.00
2017-12-11T05:37:33.756Z,0.00
2017-12-11T05:38:33.670Z,0.00
2017-12-11T05:39:33.716Z,0.00
2017-12-11T05:40:33.736Z,0.00
2017-12-11T05:41:33.717Z,0.00
2017-12-11T05:42:33.807Z,0.00
2017-12-11T05:43:33.984Z,0.00
2017-12-11T05:44:34.236Z,0.00
2017-12-11T05:45:34.651Z,0.00
2017-12-11T05:46:33.730Z,0.00
2017-12-11T05:47:34.058Z,0.00
2017-12-11T05:48:34.186Z,0.00
2017-12-11T05:49:34.315Z,0.00
2017-12-11T05:50:34.440Z,0.00
2017-12-11T05:51:34.537Z,0.00
2017-12-11T05:52:34.512Z,0.00
2017-12-11T05:53:33.701Z,0.00
2017-12-11T05:54:34.181Z,0.00
2017-12-11T05:55:34.262Z,0.00
2017-12-11T05:56:35.159Z,0.00
2017-12-11T05:57:35.332Z,0.00
2017-12-11T05:58:34.418Z,0.00
2017-12-11T05:59:38.355Z,0.00
2017-12-11T06:00:34.452Z,0.00
2017-12-11T06:01:34.468Z,0.00
2017-12-11T06:02:34.548Z,0.00
2017-12-11T06:03:33.698Z,0.00
2017-12-11T06:04:33.759Z,0.00
2017-12-11T06:05:33.738Z,0.00
2017-12-11T06:06:33.966Z,0.00
2017-12-11T06:07:34.216Z,0.00
2017-12-11T06:08:34.308Z,0.00
2017-12-11T06:09:34.916Z,0.00
2017-12-11T06:10:34.231Z,0.00
2017-12-11T06:11:58.494Z,0.00
2017-12-11T06:12:58.681Z,0.00
2017-12-11T06:13:58.983Z,0.00
2017-12-11T06:14:59.156Z,0.00
2017-12-11T06:15:59.352Z,0.00
2017-12-11T06:16:58.575Z,0.00
2017-12-11T06:17:58.502Z,0.00
2017-12-11T06:18:58.640Z,0.00
2017-12-11T06:19:58.727Z,0.00
2017-12-11T06:20:58.692Z,0.00
2017-12-11T06:21:58.611Z,0.00
2017-12-11T06:22:58.669Z,0.00
2017-12-11T06:23:58.766Z,0.00
2017-12-11T06:24:58.933Z,0.00
2017-12-11T06:25:58.975Z,0.00
2017-12-11T06:26:59.089Z,0.00
2017-12-11T06:27:59.224Z,0.00
2017-12-11T06:28:59.064Z,0.00
2017-12-11T06:29:59.081Z,0.00
2017-12-11T06:30:59.106Z,0.00
2017-12-11T06:31:59.047Z,0.00
2017-12-11T06:32:59.167Z,0.00
2017-12-11T06:33:58.962Z,0.00
2017-12-11T06:34:58.775Z,0.00
2017-12-11T06:35:58.695Z,0.00
2017-12-11T06:36:58.674Z,0.00
2017-12-11T06:37:58.578Z,0.00
2017-12-11T06:38:58.521Z,0.00
2017-12-11T06:39:58.356Z,0.00
2017-12-11T06:40:58.282Z,0.00
2017-12-11T06:42:22.910Z,0.00
2017-12-11T06:43:23.740Z,1.00
2017-12-11T06:44:23.745Z,1.00
2017-12-11T06:45:23.979Z,1.00
2017-12-11T06:46:22.866Z,1.00
2017-12-11T06:47:23.737Z,0.00
2017-12-11T06:48:23.668Z,1.00
2017-12-11T06:49:23.684Z,1.00
2017-12-11T06:50:47.397Z,2.00
2017-12-11T06:51:47.469Z,1.00
2017-12-11T06:52:47.467Z,2.00
2017-12-11T06:53:48.322Z,3.00
2017-12-11T06:54:48.332Z,3.00
2017-12-11T06:55:48.227Z,3.00
2017-12-11T06:56:48.285Z,4.00
2017-12-11T06:57:48.773Z,4.00
2017-12-11T06:58:48.052Z,5.00
2017-12-11T06:59:48.469Z,6.00
2017-12-11T07:00:47.577Z,7.00
2017-12-11T07:01:47.697Z,8.00
2017-12-11T07:03:11.717Z,10.00
2017-12-11T07:04:11.896Z,11.00
2017-12-11T07:05:35.799Z,14.00
2017-12-11T07:06:36.959Z,16.00
2017-12-11T07:07:35.955Z,19.00
2017-12-11T07:08:36.419Z,22.00
2017-12-11T07:09:36.743Z,26.00
2017-12-11T07:10:36.135Z,30.00
2017-12-11T07:12:02.267Z,36.00
2017-12-11T07:13:00.620Z,40.00
2017-12-11T07:14:00.627Z,43.00
2017-12-11T07:15:01.195Z,46.00
2017-12-11T07:16:00.271Z,53.00
2017-12-11T07:17:00.457Z,61.00
2017-12-11T07:18:00.650Z,70.00
2017-12-11T07:19:00.785Z,78.00
2017-12-11T07:20:01.125Z,81.00
2017-12-11T07:21:00.585Z,85.00
2017-12-11T07:22:00.996Z,95.00
2017-12-11T07:23:01.482Z,105.00
2017-12-11T07:24:24.650Z,107.00
2017-12-11T07:25:24.591Z,105.00
2017-12-11T07:26:24.786Z,117.00
2017-12-11T07:27:24.899Z,136.00
2017-12-11T07:28:24.801Z,144.00
2017-12-11T07:29:24.876Z,148.00
2017-12-11T07:30:25.040Z,158.00
2017-12-11T07:31:25.865Z,174.00
2017-12-11T07:32:25.185Z,189.00
2017-12-11T07:33:25.051Z,201.00
2017-12-11T07:34:25.088Z,208.00
2017-12-11T07:35:25.258Z,221.00
2017-12-11T07:36:25.434Z,235.00
2017-12-11T07:37:24.655Z,251.00
2017-12-11T07:38:24.817Z,262.00
2017-12-11T07:39:24.986Z,251.00
2017-12-11T07:40:24.907Z,251.00
2017-12-11T07:41:24.785Z,260.00
2017-12-11T07:42:24.732Z,268.00
2017-12-11T07:43:24.797Z,275.00
2017-12-11T07:44:24.718Z,281.00
2017-12-11T07:45:24.724Z,300.00
2017-12-11T07:46:24.642Z,335.00
2017-12-11T07:47:24.723Z,380.00
2017-12-11T07:48:26.086Z,409.00
2017-12-11T07:49:26.232Z,417.00
2017-12-11T07:50:25.186Z,424.00
2017-12-11T07:51:26.632Z,425.00
2017-12-11T07:52:24.915Z,408.00
2017-12-11T07:53:25.255Z,399.00
2017-12-11T07:54:25.294Z,419.00
2017-12-11T07:55:25.424Z,468.00
2017-12-11T07:56:24.521Z,538.00
2017-12-11T07:57:25.415Z,602.00
2017-12-11T07:58:24.423Z,628.00
2017-12-11T07:59:25.410Z,639.00
2017-12-11T08:00:25.459Z,652.00
2017-12-11T08:01:25.428Z,664.00
2017-12-11T08:02:24.609Z,655.00
2017-12-11T08:03:36.009Z,692.00
2017-12-11T08:04:36.345Z,775.00
2017-12-11T08:05:36.263Z,828.00
2017-12-11T08:06:36.321Z,789.00
2017-12-11T08:07:36.318Z,752.00
2017-12-11T08:08:36.438Z,721.00
2017-12-11T08:09:36.484Z,734.00
2017-12-11T08:10:36.564Z,757.00
2017-12-11T08:12:00.328Z,811.00
2017-12-11T08:13:01.299Z,849.00
2017-12-11T08:14:01.377Z,845.00
2017-12-11T08:15:00.411Z,860.00
2017-12-11T08:16:00.719Z,884.00
2017-12-11T08:17:00.826Z,897.00
2017-12-11T08:18:00.967Z,925.00
2017-12-11T08:19:01.143Z,969.00
2017-12-11T08:20:25.138Z,1029.00
2017-12-11T08:22:12.922Z,984.00
2017-12-11T08:23:12.958Z,971.00
2017-12-11T08:24:13.896Z,1001.00
2017-12-11T08:25:14.054Z,1096.00
2017-12-11T08:26:14.604Z,1151.00
2017-12-11T08:27:13.722Z,1140.00
2017-12-11T08:28:13.925Z,1147.00
2017-12-11T08:29:13.951Z,1184.00
2017-12-11T08:30:37.808Z,1229.00
2017-12-11T08:32:01.671Z,1315.00
2017-12-11T08:33:02.104Z,1354.00
2017-12-11T08:34:02.507Z,1306.00
2017-12-11T08:35:02.563Z,1245.00
2017-12-11T08:36:01.633Z,1277.00
2017-12-11T08:37:01.816Z,1347.00
2017-12-11T08:38:02.028Z,1398.00
2017-12-11T08:39:02.243Z,1499.00
2017-12-11T08:40:26.161Z,1655.00
2017-12-11T08:41:26.258Z,1683.00
2017-12-11T08:42:26.323Z,1691.00
2017-12-11T08:43:50.383Z,1580.00
2017-12-11T08:44:50.644Z,1499.00
2017-12-11T08:45:50.776Z,1527.00
2017-12-11T08:46:51.022Z,1506.00
2017-12-11T08:47:51.098Z,1418.00
2017-12-11T08:48:50.235Z,1457.00
2017-12-11T08:49:51.159Z,1528.00
2017-12-11T08:50:50.272Z,1554.00
2017-12-11T08:51:50.457Z,1598.00
2017-12-11T08:53:15.088Z,1744.00
2017-12-11T08:54:15.505Z,1817.00
2017-12-11T08:55:14.684Z,1840.00
2017-12-11T08:56:38.650Z,1782.00
2017-12-11T08:57:38.999Z,1781.00
2017-12-11T08:58:39.498Z,1808.00
2017-12-11T08:59:38.864Z,1812.00
2017-12-11T09:00:38.995Z,1787.00
2017-12-11T09:01:39.620Z,1715.00
2017-12-11T09:02:38.805Z,1666.00
2017-12-11T09:03:38.847Z,1631.00
2017-12-11T09:04:39.017Z,1658.00
2017-12-11T09:05:39.213Z,1700.00
2017-12-11T09:06:39.419Z,1694.00
2017-12-11T09:07:39.836Z,1656.00
2017-12-11T09:08:39.062Z,1612.00
2017-12-11T09:10:04.957Z,1629.00
2017-12-11T09:11:03.995Z,1721.00
2017-12-11T09:12:04.037Z,1820.00
2017-12-11T09:13:04.345Z,1849.00
2017-12-11T09:14:04.333Z,1831.00
2017-12-11T09:15:04.500Z,1791.00
2017-12-11T09:16:04.699Z,1824.00
2017-12-11T09:17:03.785Z,1874.00
2017-12-11T09:18:04.085Z,1980.00
2017-12-11T09:19:05.668Z,2023.00
2017-12-11T09:20:04.200Z,2021.00
2017-12-11T09:21:04.380Z,1930.00
2017-12-11T09:22:04.832Z,1888.00
2017-12-11T09:23:04.097Z,1907.00
2017-12-11T09:24:04.516Z,1972.00
2017-12-11T09:25:03.849Z,2080.00
2017-12-11T09:26:04.077Z,2142.00
2017-12-11T09:27:04.238Z,2175.00
2017-12-11T09:28:04.545Z,2235.00
2017-12-11T09:29:04.696Z,2294.00
2017-12-11T09:30:04.228Z,2335.00
2017-12-11T09:31:04.380Z,2336.00
2017-12-11T09:32:04.561Z,2294.00
2017-12-11T09:33:03.929Z,2282.00
2017-12-11T09:34:03.961Z,2268.00
2017-12-11T09:35:04.205Z,2236.00
2017-12-11T09:36:04.283Z,2251.00
2017-12-11T09:37:04.616Z,2276.00
2017-12-11T09:38:27.549Z,2283.00
2017-12-11T09:39:27.734Z,2320.00
2017-12-11T09:40:27.931Z,2349.00
2017-12-11T09:41:28.158Z,2394.00
2017-12-11T09:42:28.547Z,2463.00
2017-12-11T09:43:27.741Z,2479.00
2017-12-11T09:44:27.818Z,2389.00
2017-12-11T09:45:28.080Z,2304.00
2017-12-11T09:46:28.354Z,2275.00
2017-12-11T09:47:28.560Z,2323.00
2017-12-11T09:48:27.600Z,2408.00
2017-12-11T09:49:51.582Z,2425.00
2017-12-11T09:50:51.897Z,2442.00
2017-12-11T09:51:51.981Z,2526.00
2017-12-11T09:52:52.436Z,2631.00
2017-12-11T09:53:52.529Z,2685.00
2017-12-11T09:54:51.637Z,2647.00
2017-12-11T09:55:51.827Z,2582.00
2017-12-11T09:56:52.039Z,2571.00
2017-12-11T09:57:52.450Z,2593.00
2017-12-11T09:58:52.607Z,2595.00
2017-12-11T09:59:51.881Z,2582.00
2017-12-11T10:00:52.052Z,2575.00
2017-12-11T10:01:52.085Z,2589.00
2017-12-11T10:02:52.110Z,2632.00
2017-12-11T10:03:52.332Z,2637.00
2017-12-11T10:04:52.522Z,2642.00
2017-12-11T10:05:51.898Z,2580.00
2017-12-11T10:06:52.123Z,2486.00
2017-12-11T10:07:52.282Z,2370.00
2017-12-11T10:08:52.406Z,2262.00
2017-12-11T10:09:51.582Z,2178.00
2017-12-11T10:10:52.888Z,2153.00
2017-12-11T10:11:51.986Z,2193.00
2017-12-11T10:12:52.237Z,2280.00
2017-12-11T10:13:52.362Z,2397.00
2017-12-11T10:14:52.811Z,2570.00
2017-12-11T10:15:52.034Z,2732.00
2017-12-11T10:16:52.828Z,2856.00
2017-12-11T10:17:58.634Z,2943.00
2017-12-11T10:18:54.142Z,3028.00
2017-12-11T10:19:53.436Z,3103.00
2017-12-11T10:20:51.706Z,3181.00
2017-12-11T10:21:52.089Z,3218.00
2017-12-11T10:22:52.782Z,3116.00
2017-12-11T10:23:52.162Z,2991.00
2017-12-11T10:24:52.179Z,2942.00
2017-12-11T10:25:52.636Z,3060.00
2017-12-11T10:26:51.828Z,3080.00
2017-12-11T10:27:52.075Z,3078.00
2017-12-11T10:28:52.505Z,3097.00
2017-12-11T10:30:16.585Z,3183.00
2017-12-11T10:31:15.787Z,3260.00
2017-12-11T10:32:16.155Z,3294.00
2017-12-11T10:33:16.271Z,3294.00
2017-12-11T10:34:16.528Z,3263.00
2017-12-11T10:35:16.554Z,3261.00
2017-12-11T10:36:15.949Z,3302.00
2017-12-11T10:37:16.044Z,3364.00
2017-12-11T10:38:17.450Z,3447.00
2017-12-11T10:39:15.632Z,3528.00
2017-12-11T10:40:15.896Z,3631.00
2017-12-11T10:41:16.434Z,3690.00
2017-12-11T10:42:16.630Z,3765.00
2017-12-11T10:43:16.692Z,3771.00
2017-12-11T10:44:16.178Z,3806.00
2017-12-11T10:45:16.661Z,3872.00
2017-12-11T10:46:16.073Z,3878.00
2017-12-11T10:47:17.292Z,3814.00
2017-12-11T10:48:16.613Z,3815.00
2017-12-11T10:49:17.592Z,3854.00
2017-12-11T10:50:39.846Z,3959.00
2017-12-11T10:51:40.029Z,4070.00
2017-12-11T10:52:40.842Z,4183.00
2017-12-11T10:53:39.954Z,4255.00
2017-12-11T10:54:40.204Z,4378.00
2017-12-11T10:55:40.440Z,4535.00
2017-12-11T10:56:40.920Z,4580.00
2017-12-11T10:57:40.152Z,4484.00
2017-12-11T10:58:40.309Z,4386.00
2017-12-11T10:59:40.429Z,4315.00
2017-12-11T11:00:40.490Z,4420.00
2017-12-11T11:01:40.568Z,4633.00
2017-12-11T11:02:40.563Z,4854.00
2017-12-11T11:03:40.713Z,4930.00
2017-12-11T11:04:40.670Z,4925.00
2017-12-11T11:05:39.790Z,4891.00
2017-12-11T11:06:40.130Z,4790.00
2017-12-11T11:07:41.084Z,4678.00
2017-12-11T11:08:40.483Z,4581.00
2017-12-11T11:09:40.593Z,4448.00
2017-12-11T11:10:40.798Z,4338.00
2017-12-11T11:11:40.173Z,4266.00
2017-12-11T11:12:40.436Z,4216.00
2017-12-11T11:13:40.545Z,4192.00
2017-12-11T11:14:40.715Z,4170.00
2017-12-11T11:15:39.807Z,4116.00
2017-12-11T11:16:39.830Z,4066.00
2017-12-11T11:17:39.889Z,4043.00
2017-12-11T11:18:40.109Z,3990.00
2017-12-11T11:20:04.278Z,3883.00
2017-12-11T11:21:04.234Z,3815.00
2017-12-11T11:22:04.634Z,3763.00
2017-12-11T11:23:04.859Z,3758.00
2017-12-11T11:24:05.068Z,3765.00
2017-12-11T11:25:05.166Z,3732.00
2017-12-11T11:26:04.247Z,3673.00
2017-12-11T11:27:04.442Z,3629.00
2017-12-11T11:28:28.700Z,3574.00
2017-12-11T11:29:28.944Z,3521.00
2017-12-11T11:30:29.207Z,3511.00
2017-12-11T11:31:29.204Z,3474.00
2017-12-11T11:32:29.154Z,3506.00
2017-12-11T11:33:29.264Z,3549.00
2017-12-11T11:34:29.453Z,3531.00
2017-12-11T11:35:28.683Z,3562.00
2017-12-11T11:36:52.859Z,3641.00
2017-12-11T11:37:52.982Z,3669.00
2017-12-11T11:38:53.092Z,3680.00
2017-12-11T11:39:53.320Z,3709.00
2017-12-11T11:40:53.480Z,3701.00
2017-12-11T11:41:53.622Z,3699.00
2017-12-11T11:43:16.602Z,3645.00
2017-12-11T11:44:40.737Z,3554.00
2017-12-11T11:46:30.044Z,3401.00
2017-12-11T11:47:30.195Z,3350.00
2017-12-11T11:48:30.209Z,3336.00
2017-12-11T11:49:30.235Z,3353.00
2017-12-11T11:50:30.463Z,3345.00
2017-12-11T11:51:32.448Z,3383.00
2017-12-11T11:52:30.748Z,3449.00
2017-12-11T11:53:31.254Z,3469.00
2017-12-11T11:54:31.100Z,3480.00
2017-12-11T11:55:32.109Z,3482.00
2017-12-11T11:56:31.437Z,3488.00
2017-12-11T11:57:30.673Z,3471.00
2017-12-11T11:58:30.925Z,3408.00
2017-12-11T11:59:31.046Z,3363.00
2017-12-11T12:00:31.130Z,3337.00
2017-12-11T12:01:30.410Z,3316.00
2017-12-11T12:02:31.115Z,3258.00
2017-12-11T12:03:30.553Z,3216.00
2017-12-11T12:04:31.034Z,3171.00
2017-12-11T12:05:31.095Z,3112.00
2017-12-11T12:06:30.574Z,3079.00
2017-12-11T12:07:30.908Z,3117.00
2017-12-11T12:08:30.092Z,3181.00
2017-12-11T12:09:30.311Z,3302.00
2017-12-11T12:10:30.475Z,3465.00
2017-12-11T12:11:31.567Z,3609.00
2017-12-11T12:12:54.906Z,3726.00
2017-12-11T12:13:55.104Z,3798.00
2017-12-11T12:14:55.355Z,3731.00
2017-12-11T12:15:55.402Z,3672.00
2017-12-11T12:16:55.615Z,3657.00
2017-12-11T12:17:55.901Z,3678.00
2017-12-11T12:18:55.137Z,3587.00
2017-12-11T12:19:55.288Z,3614.00
2017-12-11T12:20:55.591Z,3708.00
2017-12-11T12:21:55.776Z,3648.00
2017-12-11T12:23:19.768Z,3858.00
2017-12-11T12:24:20.634Z,3841.00
2017-12-11T12:25:20.892Z,3900.00
2017-12-11T12:26:20.255Z,3824.00
2017-12-11T12:27:20.510Z,3683.00
2017-12-11T12:28:44.844Z,3341.00
2017-12-11T12:29:45.033Z,3127.00
2017-12-11T12:30:45.194Z,3071.00
2017-12-11T12:31:45.496Z,3124.00
2017-12-11T12:32:45.914Z,2961.00
2017-12-11T12:33:45.324Z,3027.00
2017-12-11T12:34:45.654Z,3035.00
2017-12-11T12:35:46.730Z,2993.00
2017-12-11T12:36:44.940Z,3013.00
2017-12-11T12:37:45.158Z,2897.00
2017-12-11T12:38:45.446Z,2798.00
2017-12-11T12:39:45.636Z,2876.00
2017-12-11T12:40:44.930Z,2869.00
2017-12-11T12:41:44.991Z,2927.00
2017-12-11T12:42:45.304Z,2974.00
2017-12-11T12:43:45.735Z,3074.00
2017-12-11T12:44:44.779Z,2963.00
2017-12-11T12:45:44.910Z,3108.00
2017-12-11T12:46:45.090Z,3138.00
2017-12-11T12:47:45.303Z,2992.00
2017-12-11T12:48:45.502Z,3096.00
2017-12-11T12:49:45.579Z,2971.00
2017-12-11T12:50:45.715Z,2960.00
2017-12-11T12:51:44.941Z,2963.00
2017-12-11T12:52:45.213Z,2956.00
2017-12-11T12:53:45.630Z,3011.00
2017-12-11T12:54:45.795Z,3079.00
2017-12-11T12:55:45.045Z,2967.00
2017-12-11T12:56:45.843Z,2791.00
2017-12-11T12:57:44.916Z,2872.00
2017-12-11T12:58:45.305Z,2753.00
2017-12-11T12:59:45.527Z,2656.00
2017-12-11T13:00:45.834Z,2360.00
2017-12-11T13:01:47.780Z,2263.00
2017-12-11T13:02:45.638Z,2328.00
2017-12-11T13:03:45.040Z,2176.00
2017-12-11T13:04:45.319Z,1998.00